Terminal Aerodrome Forecast
Issued by NWS Mt. Holly, NJ

Home | Current Version | Previous Version | Text Only | Print | Product List | Glossary On
Versions: 1 2 3 4 5 6 7 8 9 10 11 12 13 14 15 16 17 18 19 20 21 22 23 24 25 26 27 28 29 30 31 32 33 34 35
000
FTAK31 PANC 240543
TAFABE
TAF
PABE 240543Z 2406/2506 32008KT 3SM -RA BR OVC003
      TEMPO 2406/2410 3/4SM -RA BR
     FM241200 01008KT 4SM -RA BR OVC002
     FM242000 03006KT P6SM -SHRA FEW005 BKN015
     FM250100 36005KT P6SM -SHRA SCT010 BKN020=

USA.gov is the U.S. government's official web portal to all federal, state and local government web resources and services.